sensor_id;sensor_type;location;lat;lon;timestamp;temperature;humidity
20740;DHT22;10530;49.968;19.844;2023-02-01T00:00:12;3.40;99.90
20740;DHT22;10530;49.968;19.844;2023-02-01T00:05:15;3.40;99.90
20740;DHT22;10530;49.968;19.844;2023-02-01T00:10:17;3.40;99.90
20740;DHT22;10530;49.968;19.844;2023-02-01T00:15:21;3.40;99.90
20740;DHT22;10530;49.968;19.844;2023-02-01T00:20:25;3.50;99.90
20740;DHT22;10530;49.968;19.844;2023-02-01T00:25:27;3.40;99.90
20740;DHT22;10530;49.968;19.844;2023-02-01T00:30:30;3.30;99.90
20740;DHT22;10530;49.968;19.844;2023-02-01T00:35:36;3.30;99.90
20740;DHT22;10530;49.968;19.844;2023-02-01T00:40:38;3.20;99.90
20740;DHT22;10530;49.968;19.844;2023-02-01T00:45:41;3.30;99.90
20740;DHT22;10530;49.968;19.844;2023-02-01T00:50:44;3.30;99.90
20740;DHT22;10530;49.968;19.844;2023-02-01T00:55:47;3.40;99.90
20740;DHT22;10530;49.968;19.844;2023-02-01T01:06:08;3.40;99.90
20740;DHT22;10530;49.968;19.844;2023-02-01T01:11:17;3.40;99.90
20740;DHT22;10530;49.968;19.844;2023-02-01T01:16:22;3.50;99.90
20740;DHT22;10530;49.968;19.844;2023-02-01T01:21:26;3.60;99.90
20740;DHT22;10530;49.968;19.844;2023-02-01T01:26:29;3.70;99.90
20740;DHT22;10530;49.968;19.844;2023-02-01T01:31:32;3.80;99.90
20740;DHT22;10530;49.968;19.844;2023-02-01T01:36:35;3.90;99.90
20740;DHT22;10530;49.968;19.844;2023-02-01T01:41:38;4.00;99.90
20740;DHT22;10530;49.968;19.844;2023-02-01T01:46:54;4.30;99.90
20740;DHT22;10530;49.968;19.844;2023-02-01T01:52:00;4.30;99.90
20740;DHT22;10530;49.968;19.844;2023-02-01T06:32:02;3.20;99.90
20740;DHT22;10530;49.968;19.844;2023-02-01T06:37:05;3.30;99.90
20740;DHT22;10530;49.968;19.844;2023-02-01T06:42:11;3.50;99.90
20740;DHT22;10530;49.968;19.844;2023-02-01T06:47:14;3.60;99.90
20740;DHT22;10530;49.968;19.844;2023-02-01T06:52:17;3.70;99.90
20740;DHT22;10530;49.968;19.844;2023-02-01T06:57:19;3.70;99.90
20740;DHT22;10530;49.968;19.844;2023-02-01T07:02:22;3.80;99.90
20740;DHT22;10530;49.968;19.844;2023-02-01T07:07:25;3.80;99.90
20740;DHT22;10530;49.968;19.844;2023-02-01T07:12:28;3.80;99.90
20740;DHT22;10530;49.968;19.844;2023-02-01T07:17:32;3.80;99.90
20740;DHT22;10530;49.968;19.844;2023-02-01T07:22:35;3.90;99.90
20740;DHT22;10530;49.968;19.844;2023-02-01T07:27:38;3.90;99.90
20740;DHT22;10530;49.968;19.844;2023-02-01T07:32:40;4.00;99.90
20740;DHT22;10530;49.968;19.844;2023-02-01T07:37:44;4.10;99.90
20740;DHT22;10530;49.968;19.844;2023-02-01T07:42:48;4.20;99.90
20740;DHT22;10530;49.968;19.844;2023-02-01T07:47:52;4.20;99.90
20740;DHT22;10530;49.968;19.844;2023-02-01T07:52:59;4.30;99.90
20740;DHT22;10530;49.968;19.844;2023-02-01T07:58:02;5.50;99.90
20740;DHT22;10530;49.968;19.844;2023-02-01T08:03:05;4.80;99.90
20740;DHT22;10530;49.968;19.844;2023-02-01T08:08:08;4.60;99.90
20740;DHT22;10530;49.968;19.844;2023-02-01T08:13:12;4.60;99.90
20740;DHT22;10530;49.968;19.844;2023-02-01T08:18:15;4.70;99.90
20740;DHT22;10530;49.968;19.844;2023-02-01T08:23:21;4.70;99.90
20740;DHT22;10530;49.968;19.844;2023-02-01T08:28:24;4.80;99.90
20740;DHT22;10530;49.968;19.844;2023-02-01T08:33:27;4.80;99.90
20740;DHT22;10530;49.968;19.844;2023-02-01T08:38:30;4.80;99.90
20740;DHT22;10530;49.968;19.844;2023-02-01T08:43:33;4.80;99.90
20740;DHT22;10530;49.968;19.844;2023-02-01T08:48:37;4.90;99.90
20740;DHT22;10530;49.968;19.844;2023-02-01T08:53:42;4.80;99.90
20740;DHT22;10530;49.968;19.844;2023-02-01T08:58:45;4.80;99.90
20740;DHT22;10530;49.968;19.844;2023-02-01T09:03:48;4.70;99.90
20740;DHT22;10530;49.968;19.844;2023-02-01T09:08:51;4.70;99.90
20740;DHT22;10530;49.968;19.844;2023-02-01T09:13:54;4.80;99.90
20740;DHT22;10530;49.968;19.844;2023-02-01T09:18:57;4.90;99.90
20740;DHT22;10530;49.968;19.844;2023-02-01T09:24:20;5.00;99.90
20740;DHT22;10530;49.968;19.844;2023-02-01T09:29:23;5.20;99.90
20740;DHT22;10530;49.968;19.844;2023-02-01T09:34:26;5.70;99.90
20740;DHT22;10530;49.968;19.844;2023-02-01T09:39:29;5.70;99.90
20740;DHT22;10530;49.968;19.844;2023-02-01T09:49:58;5.30;99.90
20740;DHT22;10530;49.968;19.844;2023-02-01T09:55:27;5.50;99.90
20740;DHT22;10530;49.968;19.844;2023-02-01T10:00:38;5.40;99.90
20740;DHT22;10530;49.968;19.844;2023-02-01T10:05:51;5.20;99.90
20740;DHT22;10530;49.968;19.844;2023-02-01T10:16:39;5.20;99.90
20740;DHT22;10530;49.968;19.844;2023-02-01T10:27:27;5.00;99.90
20740;DHT22;10530;49.968;19.844;2023-02-01T10:32:33;5.10;99.90
20740;DHT22;10530;49.968;19.844;2023-02-01T10:37:39;5.00;99.90
20740;DHT22;10530;49.968;19.844;2023-02-01T10:42:44;5.20;99.90
20740;DHT22;10530;49.968;19.844;2023-02-01T10:47:50;5.50;99.90
20740;DHT22;10530;49.968;19.844;2023-02-01T10:53:04;6.00;99.90
20740;DHT22;10530;49.968;19.844;2023-02-01T10:58:30;5.50;99.90
20740;DHT22;10530;49.968;19.844;2023-02-01T11:14:18;5.40;99.90
20740;DHT22;10530;49.968;19.844;2023-02-01T11:19:21;5.60;99.90
20740;DHT22;10530;49.968;19.844;2023-02-01T11:24:35;6.20;99.90
20740;DHT22;10530;49.968;19.844;2023-02-01T11:29:43;5.60;99.90
20740;DHT22;10530;49.968;19.844;2023-02-01T11:34:59;5.20;99.90
20740;DHT22;10530;49.968;19.844;2023-02-01T11:40:25;5.10;99.90
20740;DHT22;10530;49.968;19.844;2023-02-01T11:45:33;5.00;99.90
20740;DHT22;10530;49.968;19.844;2023-02-01T12:12:06;5.00;99.90
20740;DHT22;10530;49.968;19.844;2023-02-01T12:22:44;5.00;99.90
20740;DHT22;10530;49.968;19.844;2023-02-01T12:28:01;4.90;99.90
20740;DHT22;10530;49.968;19.844;2023-02-01T12:38:36;4.70;99.90
20740;DHT22;10530;49.968;19.844;2023-02-01T12:44:11;4.50;99.90
20740;DHT22;10530;49.968;19.844;2023-02-01T13:05:53;4.60;99.90
20740;DHT22;10530;49.968;19.844;2023-02-01T13:11:13;4.80;99.90
20740;DHT22;10530;49.968;19.844;2023-02-01T13:16:48;4.80;99.90
20740;DHT22;10530;49.968;19.844;2023-02-01T13:21:56;4.80;99.90
20740;DHT22;10530;49.968;19.844;2023-02-01T13:27:02;4.80;99.90
20740;DHT22;10530;49.968;19.844;2023-02-01T13:38:11;5.10;99.90
20740;DHT22;10530;49.968;19.844;2023-02-01T13:43:27;5.10;99.90
20740;DHT22;10530;49.968;19.844;2023-02-01T13:48:41;5.10;99.90
20740;DHT22;10530;49.968;19.844;2023-02-01T13:53:49;4.80;99.90
20740;DHT22;10530;49.968;19.844;2023-02-01T13:58:51;4.80;99.90
20740;DHT22;10530;49.968;19.844;2023-02-01T14:03:59;4.80;99.90
20740;DHT22;10530;49.968;19.844;2023-02-01T14:24:26;4.80;99.90
20740;DHT22;10530;49.968;19.844;2023-02-01T14:29:36;4.80;99.90
20740;DHT22;10530;49.968;19.844;2023-02-01T14:35:00;4.80;99.90
20740;DHT22;10530;49.968;19.844;2023-02-01T14:40:16;4.70;99.90
20740;DHT22;10530;49.968;19.844;2023-02-01T14:55:42;4.50;99.90
20740;DHT22;10530;49.968;19.844;2023-02-01T15:00:55;4.20;99.90
20740;DHT22;10530;49.968;19.844;2023-02-01T15:05:59;3.90;99.90
20740;DHT22;10530;49.968;19.844;2023-02-01T15:11:16;3.80;99.90
20740;DHT22;10530;49.968;19.844;2023-02-01T15:16:20;3.70;99.90
20740;DHT22;10530;49.968;19.844;2023-02-01T15:21:24;3.50;99.90
20740;DHT22;10530;49.968;19.844;2023-02-01T15:26:32;3.50;99.90
20740;DHT22;10530;49.968;19.844;2023-02-01T15:31:49;3.40;99.90
20740;DHT22;10530;49.968;19.844;2023-02-01T15:37:04;3.40;99.90
20740;DHT22;10530;49.968;19.844;2023-02-01T15:42:12;3.30;99.90
20740;DHT22;10530;49.968;19.844;2023-02-01T15:47:26;3.30;99.90
20740;DHT22;10530;49.968;19.844;2023-02-01T15:52:37;3.20;99.90
20740;DHT22;10530;49.968;19.844;2023-02-01T15:57:41;3.20;99.90
20740;DHT22;10530;49.968;19.844;2023-02-01T16:02:56;3.20;99.90
20740;DHT22;10530;49.968;19.844;2023-02-01T16:08:24;3.10;99.90
20740;DHT22;10530;49.968;19.844;2023-02-01T16:13:25;3.10;99.90
20740;DHT22;10530;49.968;19.844;2023-02-01T16:18:28;3.10;99.90
20740;DHT22;10530;49.968;19.844;2023-02-01T16:23:31;3.20;99.90
20740;DHT22;10530;49.968;19.844;2023-02-01T16:28:34;3.30;99.90
20740;DHT22;10530;49.968;19.844;2023-02-01T16:33:37;3.40;99.90
20740;DHT22;10530;49.968;19.844;2023-02-01T16:38:40;3.30;99.90
20740;DHT22;10530;49.968;19.844;2023-02-01T16:43:43;3.30;99.90
20740;DHT22;10530;49.968;19.844;2023-02-01T16:48:51;3.30;99.90
20740;DHT22;10530;49.968;19.844;2023-02-01T16:53:54;3.40;99.90
20740;DHT22;10530;49.968;19.844;2023-02-01T16:58:59;3.40;99.90
20740;DHT22;10530;49.968;19.844;2023-02-01T17:04:02;3.40;99.90
20740;DHT22;10530;49.968;19.844;2023-02-01T17:09:05;3.40;99.90
20740;DHT22;10530;49.968;19.844;2023-02-01T17:14:19;3.50;99.90
20740;DHT22;10530;49.968;19.844;2023-02-01T17:19:24;3.50;99.90
20740;DHT22;10530;49.968;19.844;2023-02-01T17:24:29;3.70;99.90
20740;DHT22;10530;49.968;19.844;2023-02-01T17:29:49;3.70;99.90
20740;DHT22;10530;49.968;19.844;2023-02-01T17:34:53;3.80;99.90
20740;DHT22;10530;49.968;19.844;2023-02-01T17:39:56;3.70;99.90
20740;DHT22;10530;49.968;19.844;2023-02-01T17:45:01;3.70;99.90
20740;DHT22;10530;49.968;19.844;2023-02-01T17:50:14;3.70;99.90
20740;DHT22;10530;49.968;19.844;2023-02-01T17:55:22;3.70;99.90
20740;DHT22;10530;49.968;19.844;2023-02-01T18:00:26;3.90;99.90
20740;DHT22;10530;49.968;19.844;2023-02-01T18:05:38;3.80;99.90
20740;DHT22;10530;49.968;19.844;2023-02-01T18:10:42;3.80;99.90
20740;DHT22;10530;49.968;19.844;2023-02-01T18:15:46;3.70;99.90
20740;DHT22;10530;49.968;19.844;2023-02-01T18:20:49;3.70;99.90
20740;DHT22;10530;49.968;19.844;2023-02-01T18:25:52;3.70;99.90
20740;DHT22;10530;49.968;19.844;2023-02-01T18:30:55;3.60;99.90
20740;DHT22;10530;49.968;19.844;2023-02-01T18:35:58;3.60;99.90
20740;DHT22;10530;49.968;19.844;2023-02-01T18:41:01;3.60;99.90
20740;DHT22;10530;49.968;19.844;2023-02-01T18:46:11;3.40;99.90
20740;DHT22;10530;49.968;19.844;2023-02-01T18:51:19;3.30;99.90
20740;DHT22;10530;49.968;19.844;2023-02-01T18:56:23;3.40;99.90
20740;DHT22;10530;49.968;19.844;2023-02-01T19:01:26;3.40;99.90
20740;DHT22;10530;49.968;19.844;2023-02-01T19:06:29;3.40;99.90
20740;DHT22;10530;49.968;19.844;2023-02-01T19:11:32;3.40;99.90
20740;DHT22;10530;49.968;19.844;2023-02-01T19:16:35;3.30;99.90
20740;DHT22;10530;49.968;19.844;2023-02-01T19:21:41;3.30;99.90
20740;DHT22;10530;49.968;19.844;2023-02-01T19:26:44;3.20;99.90
20740;DHT22;10530;49.968;19.844;2023-02-01T19:31:47;3.20;99.90
20740;DHT22;10530;49.968;19.844;2023-02-01T19:36:50;3.20;99.90
20740;DHT22;10530;49.968;19.844;2023-02-01T19:41:54;3.20;99.90
20740;DHT22;10530;49.968;19.844;2023-02-01T19:46:57;3.10;99.90
20740;DHT22;10530;49.968;19.844;2023-02-01T19:52:00;3.20;99.90
20740;DHT22;10530;49.968;19.844;2023-02-01T19:57:02;3.30;99.90
20740;DHT22;10530;49.968;19.844;2023-02-01T20:02:06;3.30;99.90
20740;DHT22;10530;49.968;19.844;2023-02-01T20:07:09;3.30;99.90
20740;DHT22;10530;49.968;19.844;2023-02-01T20:12:13;3.20;99.90
20740;DHT22;10530;49.968;19.844;2023-02-01T20:17:16;3.30;99.90
20740;DHT22;10530;49.968;19.844;2023-02-01T20:22:20;3.30;99.90
20740;DHT22;10530;49.968;19.844;2023-02-01T20:27:24;3.30;99.90
20740;DHT22;10530;49.968;19.844;2023-02-01T20:32:27;3.40;99.90
20740;DHT22;10530;49.968;19.844;2023-02-01T20:37:30;3.50;99.90
20740;DHT22;10530;49.968;19.844;2023-02-01T20:42:33;3.70;99.90
20740;DHT22;10530;49.968;19.844;2023-02-01T20:47:37;3.90;99.90
20740;DHT22;10530;49.968;19.844;2023-02-01T20:52:43;3.90;99.90
20740;DHT22;10530;49.968;19.844;2023-02-01T20:57:46;3.90;99.90
20740;DHT22;10530;49.968;19.844;2023-02-01T21:02:49;4.10;99.90
20740;DHT22;10530;49.968;19.844;2023-02-01T21:07:52;4.20;99.90
20740;DHT22;10530;49.968;19.844;2023-02-01T21:12:55;4.20;99.90
20740;DHT22;10530;49.968;19.844;2023-02-01T21:18:06;4.20;99.90
20740;DHT22;10530;49.968;19.844;2023-02-01T21:23:11;4.20;99.90
20740;DHT22;10530;49.968;19.844;2023-02-01T21:28:14;4.20;99.90
20740;DHT22;10530;49.968;19.844;2023-02-01T21:33:17;4.20;99.90
20740;DHT22;10530;49.968;19.844;2023-02-01T21:38:20;4.20;99.90
20740;DHT22;10530;49.968;19.844;2023-02-01T21:43:23;4.20;99.90
20740;DHT22;10530;49.968;19.844;2023-02-01T21:48:26;4.30;99.90
20740;DHT22;10530;49.968;19.844;2023-02-01T21:53:29;4.30;99.90
20740;DHT22;10530;49.968;19.844;2023-02-01T21:58:32;3.80;99.90
20740;DHT22;10530;49.968;19.844;2023-02-01T22:03:35;3.50;99.90
20740;DHT22;10530;49.968;19.844;2023-02-01T22:08:38;3.40;99.90
20740;DHT22;10530;49.968;19.844;2023-02-01T22:13:41;3.20;99.90
20740;DHT22;10530;49.968;19.844;2023-02-01T22:18:45;3.10;99.90
20740;DHT22;10530;49.968;19.844;2023-02-01T22:23:52;3.10;99.90
20740;DHT22;10530;49.968;19.844;2023-02-01T22:28:56;3.00;99.90
20740;DHT22;10530;49.968;19.844;2023-02-01T22:33:59;3.00;99.90
20740;DHT22;10530;49.968;19.844;2023-02-01T22:39:02;2.90;99.90
20740;DHT22;10530;49.968;19.844;2023-02-01T22:44:05;2.90;99.90
20740;DHT22;10530;49.968;19.844;2023-02-01T22:49:08;2.90;99.90
20740;DHT22;10530;49.968;19.844;2023-02-01T22:54:19;2.90;99.90
20740;DHT22;10530;49.968;19.844;2023-02-01T22:59:25;2.90;99.90
20740;DHT22;10530;49.968;19.844;2023-02-01T23:04:28;3.10;99.90
20740;DHT22;10530;49.968;19.844;2023-02-01T23:09:31;3.20;99.90
20740;DHT22;10530;49.968;19.844;2023-02-01T23:14:34;3.50;99.90
20740;DHT22;10530;49.968;19.844;2023-02-01T23:19:57;3.60;99.90
20740;DHT22;10530;49.968;19.844;2023-02-01T23:24:59;3.70;99.90
20740;DHT22;10530;49.968;19.844;2023-02-01T23:30:04;3.80;99.90
20740;DHT22;10530;49.968;19.844;2023-02-01T23:35:07;3.80;99.90
20740;DHT22;10530;49.968;19.844;2023-02-01T23:40:10;3.80;99.90
20740;DHT22;10530;49.968;19.844;2023-02-01T23:45:14;3.80;99.90
20740;DHT22;10530;49.968;19.844;2023-02-01T23:50:16;3.80;99.90
20740;DHT22;10530;49.968;19.844;2023-02-01T23:55:19;3.90;99.90
